METAR Data
IDs: Format: Raw Decoded Include TAF

Data at: 1725 UTC 03 Jul 2020

METAR for:KVES (Versailles/Darke Cnt, OH, US)
Text:KVES 031710Z AUTO 02006KT 10SM CLR 30/10 A3005 RMK AO2
Temperature: 30.0°C ( 86°F)
Dewpoint: 10.0°C ( 50°F) [RH = 29%]
Pressure (altimeter):30.05 inches Hg (1017.7 mb)
Winds:from the NNE (20 degrees) at 7 MPH (6 knots; 3.1 m/s)
Visibility:10 or more sm (16+ km)
Ceiling:at least 12,000 feet AGL
Clouds:sky clear below 12,000 feet AGL
QC Flag:automated observation with no human augmentation